createdAt,value
2022-08-29T00:06:05.410Z,25.40
2022-08-29T00:16:09.614Z,25.30
2022-08-29T00:26:14.959Z,25.00
2022-08-29T00:36:18.677Z,25.00
2022-08-29T00:46:48.024Z,25.00
2022-08-29T00:56:52.415Z,25.10
2022-08-29T01:06:58.184Z,25.10
2022-08-29T01:17:04.001Z,25.00
2022-08-29T01:27:10.603Z,24.90
2022-08-29T01:37:16.614Z,24.80
2022-08-29T01:47:23.623Z,24.60
2022-08-29T01:57:27.331Z,24.50
2022-08-29T02:07:32.912Z,24.50
2022-08-29T02:17:36.787Z,24.60
2022-08-29T02:27:42.768Z,24.30
2022-08-29T02:37:46.465Z,24.20
2022-08-29T02:47:52.464Z,24.50
2022-08-29T02:57:56.586Z,24.50
2022-08-29T03:08:02.385Z,24.50
2022-08-29T03:18:06.411Z,24.40
2022-08-29T03:28:11.530Z,24.40
2022-08-29T03:38:15.355Z,24.10
2022-08-29T03:48:20.571Z,23.90
2022-08-29T03:58:24.559Z,23.90
2022-08-29T04:08:29.862Z,24.20
2022-08-29T04:18:33.718Z,24.20
2022-08-29T04:28:38.835Z,24.10
2022-08-29T04:38:42.581Z,24.10
2022-08-29T04:48:48.050Z,24.00
2022-08-29T04:58:52.393Z,23.90
2022-08-29T05:08:59.934Z,24.00
2022-08-29T05:19:05.091Z,24.40
2022-08-29T05:29:12.182Z,24.50
2022-08-29T05:39:15.864Z,24.40
2022-08-29T05:49:21.075Z,24.70
2022-08-29T05:59:24.838Z,24.90
2022-08-29T06:09:30.211Z,24.90
2022-08-29T06:19:35.190Z,25.10
2022-08-29T06:29:43.530Z,25.50
2022-08-29T06:39:47.745Z,25.80
2022-08-29T06:49:53.073Z,26.10
2022-08-29T06:59:56.826Z,26.30
2022-08-29T07:10:02.280Z,26.70
2022-08-29T07:20:07.143Z,26.90
2022-08-29T07:30:16.594Z,27.30
2022-08-29T07:40:20.753Z,27.70
2022-08-29T07:50:25.925Z,28.00
2022-08-29T08:00:29.604Z,28.00
2022-08-29T08:10:34.805Z,27.80
2022-08-29T08:20:38.694Z,28.50
2022-08-29T08:30:44.012Z,29.00
2022-08-29T08:40:56.998Z,29.30
2022-08-29T08:51:06.837Z,29.40
2022-08-29T09:01:20.423Z,29.80
2022-08-29T09:11:35.449Z,30.20
2022-08-29T09:21:47.170Z,30.70
2022-08-29T09:32:08.052Z,31.20
2022-08-29T09:42:23.312Z,30.20
2022-08-29T09:52:27.462Z,29.60
2022-08-29T10:02:38.433Z,29.30
2022-08-29T10:12:52.668Z,29.60
2022-08-29T10:23:04.132Z,29.50
2022-08-29T10:33:22.774Z,29.30
2022-08-29T10:43:40.757Z,29.00
2022-08-29T10:53:47.358Z,29.20
2022-08-29T11:04:00.740Z,29.60
2022-08-29T11:14:09.856Z,29.90
2022-08-29T11:24:18.037Z,29.50
2022-08-29T11:34:36.897Z,29.00
2022-08-29T11:44:46.332Z,29.30
2022-08-29T11:55:18.337Z,30.30
2022-08-29T12:05:55.380Z,29.70
2022-08-29T12:16:09.408Z,30.40
2022-08-29T12:26:40.813Z,30.30
2022-08-29T12:37:05.579Z,33.00
2022-08-29T12:47:11.760Z,32.90
2022-08-29T12:57:22.435Z,34.60
2022-08-29T13:07:28.026Z,33.70
2022-08-29T13:17:37.550Z,32.90
2022-08-29T13:27:41.226Z,35.40
2022-08-29T13:37:48.069Z,34.40
2022-08-29T13:48:14.776Z,34.50
2022-08-29T13:58:22.871Z,34.90
2022-08-29T14:08:26.828Z,35.10
2022-08-29T14:18:31.980Z,35.70
2022-08-29T14:28:40.020Z,34.60
2022-08-29T14:38:46.503Z,35.10
2022-08-29T14:48:50.170Z,36.20
2022-08-29T14:58:55.355Z,36.00
2022-08-29T15:08:59.696Z,36.00
2022-08-29T15:19:40.602Z,35.80
2022-08-29T15:29:28.988Z,35.50
2022-08-29T15:39:34.852Z,33.70
2022-08-29T15:49:38.674Z,30.90
2022-08-29T15:59:57.714Z,30.90
2022-08-29T16:10:05.741Z,31.50
2022-08-29T16:20:16.485Z,30.80
2022-08-29T16:30:21.199Z,30.70
2022-08-29T16:40:27.619Z,30.70
2022-08-29T16:50:31.667Z,30.30
2022-08-29T17:00:37.204Z,30.40
2022-08-29T17:10:39.684Z,29.90
2022-08-29T17:20:46.220Z,30.20
2022-08-29T17:30:50.839Z,29.80
2022-08-29T17:40:59.696Z,29.00
2022-08-29T17:51:03.550Z,28.50
2022-08-29T18:01:15.093Z,28.40
2022-08-29T18:11:19.881Z,28.10
2022-08-29T18:21:26.124Z,27.90
2022-08-29T18:31:29.866Z,27.90
2022-08-29T18:41:35.171Z,27.70
2022-08-29T18:51:39.180Z,27.70
2022-08-29T19:01:44.690Z,27.60
2022-08-29T19:11:48.667Z,27.90
2022-08-29T19:21:53.849Z,27.90
2022-08-29T19:31:57.621Z,28.20
2022-08-29T19:42:02.855Z,27.50
2022-08-29T19:52:06.751Z,27.40
2022-08-29T20:02:12.140Z,27.40
2022-08-29T20:12:16.283Z,27.50
2022-08-29T20:22:21.889Z,27.50
2022-08-29T20:32:25.886Z,27.00
2022-08-29T20:42:31.517Z,27.00
2022-08-29T20:52:37.875Z,26.90
2022-08-29T21:03:00.500Z,27.00
2022-08-29T21:13:04.518Z,27.10
2022-08-29T21:23:09.698Z,27.20
2022-08-29T21:33:16.654Z,27.30
2022-08-29T21:43:22.213Z,27.60
2022-08-29T21:53:26.059Z,27.50
2022-08-29T22:03:31.283Z,26.90
2022-08-29T22:13:35.077Z,26.40
2022-08-29T22:23:40.159Z,26.10
2022-08-29T22:33:43.958Z,26.20
2022-08-29T22:43:49.101Z,25.80
2022-08-29T22:54:07.569Z,25.80
2022-08-29T23:04:13.576Z,25.80
2022-08-29T23:14:17.567Z,26.00
2022-08-29T23:24:26.524Z,25.50
2022-08-29T23:34:31.629Z,25.00
2022-08-29T23:44:37.107Z,24.90
2022-08-29T23:54:40.811Z,25.00
